Flight Track Log - Related Links

Times and Time Zones

All times are in EDT time to prevent confusion due to time zone crossing. See the AAL856 flight status page for this flight to view local times or setup timezone preferences in your user account.

Time Position Orientation Groundspeed Altitude Reporting Facility
EDT Latitude Longitude Course Direction KTS MPH feet Rate Location/Type
Mon 03:52:03 PM 32.7417 -117.2297 90° East 162 186 1,600  Level Los Angeles Center
Mon 03:53:05 PM 32.7575 -117.2931 287° West 193 222 3,100 1,544 Climbing Los Angeles Center
Mon 03:54:19 PM 32.7136 -117.3342 218° Southwest 235 270 5,100 2,146 Climbing Los Angeles Center
Mon 03:55:22 PM 32.6531 -117.2675 137° Southeast 247 284 8,000 2,352 Climbing Los Angeles Center
Mon 03:56:00 PM 32.6155 -116.7958 84° East  Level FlightAware Approximate
Mon 03:56:24 PM 32.6417 -117.1761 98° East 274 315 10,000  Level Los Angeles Center
Mon 03:57:00 PM 32.6333 -116.6612 90° East  Level FlightAware Approximate
Mon 03:57:26 PM 32.6264 -117.0850 101° East 281 323 12,400  Level Los Angeles Center
Mon 03:58:28 PM 32.6114 -116.9669 99° East 298 343 14,400 1,810 Climbing Los Angeles Center
Mon 03:59:32 PM 32.6375 -116.8639 73° East 322 371 16,200 1,810 Climbing Los Angeles Center
Mon 04:00:34 PM 32.6936 -116.7683 55° Northeast 341 392 18,200 1,790 Climbing Los Angeles Center
Mon 04:01:36 PM 32.7583 -116.6775 50° Northeast 356 410 19,900 1,548 Climbing Los Angeles Center
Mon 04:02:38 PM 32.8278 -116.5900 47° Northeast 362 417 21,400 1,306 Climbing Los Angeles Center
Mon 04:03:40 PM 32.9183 -116.4892 43° Northeast 379 436 22,600 1,065 Climbing Los Angeles Center
Mon 04:04:42 PM 32.9542 -116.3656 71° East 417 480 23,600 1,008 Climbing Los Angeles Center
Mon 04:05:45 PM 32.9531 -116.2328 91° East 404 465 24,700 1,104 Climbing Los Angeles Center
Mon 04:06:47 PM 32.9547 -116.0822 89° East 406 467 25,900 1,113 Climbing Los Angeles Center
Mon 04:07:49 PM 32.9572 -115.9425 89° East 418 481 27,000 1,065 Climbing Los Angeles Center
Mon 04:08:51 PM 32.9578 -115.8033 90° East 421 484 28,100 1,065 Climbing Los Angeles Center
Mon 04:09:53 PM 32.9586 -115.6653 90° East 418 481 29,200 1,016 Climbing Los Angeles Center
Mon 04:10:55 PM 32.9614 -115.5258 89° East 421 484 30,200 774 Climbing Los Angeles Center
Mon 04:11:57 PM 32.9611 -115.3594 90° East 422 486 30,800 339 Climbing Los Angeles Center
Mon 04:12:59 PM 32.9639 -115.2144 89° East 436 502 30,900 48 Climbing Los Angeles Center
Mon 04:14:02 PM 32.9653 -115.0625 89° East 456 525 30,900  Level Los Angeles Center
Mon 04:15:04 PM 32.9650 -114.9114 90° East 457 526 30,900 48 Level Los Angeles Center
Mon 04:16:06 PM 32.9669 -114.7603 89° East 456 525 31,000  Climbing Los Angeles Center
Mon 04:17:08 PM 32.9656 -114.6106 91° East 452 520 30,900 -48 Descending Los Angeles Center
Mon 04:18:10 PM 32.9672 -114.4303 89° East 451 519 30,900  Level Los Angeles Center
Mon 04:19:12 PM 32.9678 -114.2831 90° East 445 512 30,900  Level Los Angeles Center
Mon 04:20:14 PM 32.9667 -114.1333 90° East 450 518 30,900  Level Los Angeles Center
Mon 04:21:16 PM 32.9661 -113.9844 90° East 451 519 30,900  Level Los Angeles Center
Mon 04:22:19 PM 32.9631 -113.8339 91° East 454 522 30,900  Level Los Angeles Center
Mon 04:23:21 PM 32.9636 -113.6853 90° East 450 518 30,900 48 Level Los Angeles Center
Mon 04:24:23 PM 32.9622 -113.5067 90° East 450 518 31,000 48 Climbing Los Angeles Center
Mon 04:25:25 PM 32.9608 -113.3603 91° East 445 512 31,000 -48 Level Los Angeles Center
Mon 04:26:27 PM 32.9886 -113.2064 78° East 452 520 30,900 -48 Descending Los Angeles Center
Mon 04:27:29 PM 33.0267 -113.0611 73° East 456 525 30,900  Level Los Angeles Center
Mon 04:28:40 PM 33.1033 -112.8969 61° Northeast 463 533 30,900 45 Level Albuquerque Center
Mon 04:29:42 PM 33.1689 -112.7633 60° Northeast 464 534 31,000 48 Climbing Albuquerque Center
Mon 04:30:44 PM 33.2347 -112.6289 60° Northeast 467 537 31,000  Level Albuquerque Center
Mon 04:31:46 PM 33.2908 -112.5025 62° Northeast 469 540 31,000 145 Level Albuquerque Center
Mon 04:32:48 PM 33.3547 -112.3339 66° East 466 536 31,300 435 Climbing Albuquerque Center
Mon 04:33:50 PM 33.4094 -112.1917 65° Northeast 472 543 31,900 532 Climbing Albuquerque Center
Mon 04:34:52 PM 33.4633 -112.0533 65° Northeast 467 537 32,400 532 Climbing Albuquerque Center
Mon 04:35:54 PM 33.5183 -111.9197 64° Northeast 456 525 33,000 290 Climbing Albuquerque Center
Mon 04:36:56 PM 33.5736 -111.7867 63° Northeast 452 520 33,000  Level Albuquerque Center
Mon 04:37:58 PM 33.6400 -111.6269 63° Northeast 452 520 33,000  Level Albuquerque Center
Mon 04:39:00 PM 33.6992 -111.4961 61° Northeast 452 520 33,000  Level Albuquerque Center
Mon 04:40:02 PM 33.7581 -111.3642 62° Northeast 453 521 33,000  Level Albuquerque Center
Mon 04:41:04 PM 33.8136 -111.2308 63° Northeast 450 518 33,000  Level Albuquerque Center
Mon 04:42:06 PM 33.8483 -111.0572 76° East 446 513 33,000  Level Albuquerque Center
Mon 04:43:08 PM 33.8708 -110.9114 79° East 446 513 33,000  Level Albuquerque Center
Mon 04:44:10 PM 33.8917 -110.7639 80° East 447 514 33,000  Level Albuquerque Center
Mon 04:45:13 PM 33.9125 -110.6178 80° East 446 513 33,000  Level Albuquerque Center
Mon 04:46:15 PM 33.9333 -110.4694 80° East 449 517 33,000  Level Albuquerque Center
Mon 04:47:17 PM 33.9542 -110.3197 80° East 445 512 33,000  Level Albuquerque Center
Mon 04:48:19 PM 33.9736 -110.1733 81° East 443 510 33,000  Level Albuquerque Center
Mon 04:49:21 PM 33.9978 -109.9975 81° East 443 510 33,000  Level Albuquerque Center
Mon 04:50:23 PM 34.0178 -109.8531 80° East 440 506 33,000  Level Albuquerque Center
Mon 04:51:25 PM 34.0392 -109.6914 81° East 444 511 33,000  Level Albuquerque Center
Mon 04:52:27 PM 34.0581 -109.5519 81° East 443 510 33,000  Level Albuquerque Center
Mon 04:53:29 PM 34.0669 -109.4094 86° East 445 512 33,000  Level Albuquerque Center
Mon 04:54:31 PM 34.0719 -109.2586 88° East 446 513 33,000  Level Albuquerque Center
Mon 04:55:33 PM 34.0744 -109.0981 89° East 448 516 33,000  Level Albuquerque Center
Mon 04:56:35 PM 34.0750 -108.9311 90° East 448 516 33,000  Level Albuquerque Center
Mon 04:57:37 PM 34.0689 -108.7775 93° East 449 517 33,000  Level Albuquerque Center
Mon 04:58:39 PM 34.0625 -108.6261 93° East 450 518 33,000  Level Albuquerque Center
Mon 04:59:41 PM 34.0494 -108.4625 95° East 449 517 33,000  Level Albuquerque Center
Mon 05:00:43 PM 34.0303 -108.3147 99° East 447 514 33,000  Level Albuquerque Center
Mon 05:01:45 PM 34.0128 -108.1661 98° East 449 517 33,000  Level Albuquerque Center
Mon 05:02:47 PM 33.9811 -108.0125 104° East 449 517 33,000  Level Albuquerque Center
Mon 05:03:49 PM 33.9583 -107.8631 100° East 452 520 33,000  Level Albuquerque Center
Mon 05:04:51 PM 33.9511 -107.7228 94° East 451 519 33,000  Level Albuquerque Center
Mon 05:05:53 PM 33.9519 -107.5425 90° East 450 518 33,000  Level Albuquerque Center
Mon 05:06:55 PM 33.9692 -107.3931 82° East 452 520 33,000  Level Albuquerque Center
Mon 05:07:57 PM 33.9897 -107.2433 81° East 454 522 33,000 -48 Level Albuquerque Center
Mon 05:08:59 PM 34.0108 -107.0833 81° East 451 519 32,900 -48 Descending Albuquerque Center
Mon 05:10:01 PM 34.0314 -106.9328 81° East 453 521 32,900 48 Level Albuquerque Center
Mon 05:11:03 PM 34.0522 -106.7697 81° East 450 518 33,000 48 Climbing Albuquerque Center
Mon 05:12:05 PM 34.0711 -106.6203 81° East 451 519 33,000  Level Albuquerque Center
Mon 05:13:07 PM 34.0897 -106.4714 81° East 451 519 33,000  Level Albuquerque Center
Mon 05:14:09 PM 34.1081 -106.3236 81° East 450 518 33,000  Level Albuquerque Center
Mon 05:15:11 PM 34.1428 -106.1703 75° East 438 504 33,000  Level Albuquerque Center
Mon 05:16:13 PM 34.1542 -106.0200 85° East 453 521 33,000  Level Albuquerque Center
Mon 05:17:15 PM 34.1647 -105.8694 85° East 450 518 33,000  Level Albuquerque Center
Mon 05:18:17 PM 34.1833 -105.7192 81° East 449 517 33,000  Level Albuquerque Center
Mon 05:19:19 PM 34.2044 -105.5425 82° East 451 519 33,000  Level Albuquerque Center
Mon 05:20:21 PM 34.2217 -105.3917 82° East 451 519 33,000  Level Albuquerque Center
Mon 05:21:23 PM 34.2394 -105.2431 82° East 447 514 33,000  Level Albuquerque Center
Mon 05:22:25 PM 34.2564 -105.0942 82° East 445 512 33,000  Level Albuquerque Center
Mon 05:23:27 PM 34.2739 -104.9439 82° East 447 514 33,000  Level Albuquerque Center
Mon 05:24:29 PM 34.2903 -104.7933 82° East 448 516 33,000  Level Albuquerque Center
Mon 05:25:31 PM 34.3078 -104.6442 82° East 447 514 33,000  Level Albuquerque Center
Mon 05:26:33 PM 34.3272 -104.4681 82° East 449 517 33,000  Level Albuquerque Center
Mon 05:27:35 PM 34.3414 -104.3183 83° East 448 516 33,000  Level Albuquerque Center
Mon 05:28:37 PM 34.3414 -104.1661 90° East 449 517 33,000  Level Albuquerque Center
Mon 05:29:39 PM 34.3411 -104.0144 90° East 449 517 33,000  Level Albuquerque Center
Mon 05:30:41 PM 34.3406 -103.8661 90° East 442 509 33,000  Level Albuquerque Center
Mon 05:31:43 PM 34.3406 -103.7156 90° East 444 511 33,000  Level Albuquerque Center
Mon 05:32:45 PM 34.3397 -103.5386 90° East 447 514 33,000  Level Albuquerque Center
Mon 05:33:47 PM 34.3392 -103.3869 90° East 448 516 33,000  Level Albuquerque Center
Mon 05:34:49 PM 34.3383 -103.2392 90° East 441 507 33,000  Level Albuquerque Center
Mon 05:35:51 PM 34.3375 -103.0906 90° East 439 505 33,000  Level Albuquerque Center
Mon 05:36:53 PM 34.3350 -102.9450 91° East 443 510 33,000  Level Albuquerque Center
Mon 05:37:55 PM 34.3314 -102.7969 92° East 443 510 33,000  Level Albuquerque Center
Mon 05:38:57 PM 34.3300 -102.6181 90° East 445 512 33,000  Level Albuquerque Center
Mon 05:39:59 PM 34.3278 -102.4689 91° East 445 512 33,000  Level Albuquerque Center
Mon 05:41:00 PM 34.3253 -102.3211 91° East 444 511 33,000  Level Albuquerque Center
Mon 05:42:02 PM 34.3256 -102.1747 90° East 442 509 33,000  Level Albuquerque Center
Mon 05:43:04 PM 34.3231 -102.0289 91° East 439 505 33,000  Level Albuquerque Center
Mon 05:44:06 PM 34.3206 -101.8803 91° East 441 507 33,000  Level Albuquerque Center
Mon 05:45:08 PM 34.3186 -101.7081 91° East 447 514 33,000  Level Fort Worth Center
Mon 05:46:08 PM 34.3153 -101.5597 92° East 442 509 33,000  Level Fort Worth Center
Mon 05:47:08 PM 34.3097 -101.4136 93° East 437 503 33,000  Level Fort Worth Center
Mon 05:48:08 PM 34.3072 -101.2953 91° East 443 510 33,000  Level Fort Worth Center
Mon 05:49:08 PM 34.3019 -101.1192 92° East 431 496 33,000  Level Fort Worth Center
Mon 05:50:08 PM 34.2917 -100.9703 95° East 431 496 33,000  Level Fort Worth Center
Mon 05:51:08 PM 34.2728 -100.8289 99° East 436 502 33,000  Level Fort Worth Center
Mon 05:52:08 PM 34.2475 -100.6797 102° East 441 507 33,000  Level Fort Worth Center
Mon 05:53:08 PM 34.2158 -100.5353 105° East 441 507 33,000  Level Fort Worth Center
Mon 05:54:08 PM 34.1872 -100.4214 107° East 441 507 33,000  Level Fort Worth Center
Mon 05:55:08 PM 34.1472 -100.2542 106° East 441 507 33,000  Level Fort Worth Center
Mon 05:56:08 PM 34.1108 -100.1075 107° East 441 507 33,000  Level Fort Worth Center
Mon 05:57:08 PM 34.0764 -99.9661 106° East 441 507 33,000  Level Fort Worth Center
Mon 05:58:08 PM 34.0417 -99.8247 106° East 441 507 33,000  Level Fort Worth Center
Mon 05:59:08 PM 34.0086 -99.6861 106° East 436 502 33,000  Level Fort Worth Center
Mon 06:00:08 PM 33.9758 -99.5400 105° East 441 507 33,000 -200 Level Fort Worth Center
Mon 06:01:08 PM 33.9406 -99.3964 106° East 446 513 32,600 -700 Descending Fort Worth Center
Mon 06:02:08 PM 33.9053 -99.2503 106° East 446 513 31,600 -1,000 Descending Fort Worth Center
Mon 06:03:08 PM 33.8717 -99.1119 106° East 441 507 30,600 -1,050 Descending Fort Worth Center
Mon 06:04:08 PM 33.8358 -98.9714 107° East 441 507 29,500 -1,050 Descending Fort Worth Center
Mon 06:05:08 PM 33.8000 -98.8308 107° East 441 507 28,500 -1,550 Descending Fort Worth Center
Mon 06:06:08 PM 33.7661 -98.6903 106° East 441 507 26,400 -2,150 Descending Fort Worth Center
Mon 06:07:08 PM 33.7297 -98.5550 108° East 441 507 24,200 -1,750 Descending Fort Worth Center
Mon 06:08:08 PM 33.6933 -98.4269 109° East 418 481 22,900 -1,450 Descending Fort Worth Center
Mon 06:09:08 PM 33.6483 -98.3042 114° Southeast 402 463 21,300 -1,600 Descending Fort Worth Center
Mon 06:10:08 PM 33.6011 -98.1842 115° Southeast 402 463 19,700 -1,600 Descending Fort Worth Center
Mon 06:11:08 PM 33.5497 -98.0639 117° Southeast 402 463 18,100 -1,650 Descending Fort Worth Center
Mon 06:12:08 PM 33.5083 -97.9567 115° Southeast 402 463 16,400 -1,800 Descending Fort Worth Center
Mon 06:13:08 PM 33.4589 -97.8317 115° Southeast 385 443 14,500 -1,650 Descending Fort Worth Center
Mon 06:14:08 PM 33.4194 -97.7344 116° Southeast 373 429 13,100 -1,350 Descending Fort Worth Center
Mon 06:15:08 PM 33.3675 -97.6200 118° Southeast 358 412 11,800 -1,000 Descending Fort Worth Center
Mon 06:16:08 PM 33.2947 -97.5428 138° Southeast 347 399 11,100 -400 Descending Fort Worth Center
Mon 06:17:08 PM 33.2342 -97.4706 135° Southeast 347 399 11,000 -50 Descending Fort Worth Center
Mon 06:18:08 PM 33.1589 -97.3811 135° Southeast 341 392 11,000  Level Fort Worth Center
Mon 06:19:08 PM 33.1089 -97.3217 135° Southeast 305 351 11,000  Level Fort Worth Center
Mon 06:20:08 PM 33.0544 -97.2547 134° Southeast 258 297 11,000  Level Fort Worth Center
Mon 06:21:08 PM 33.0064 -97.2028 138° Southeast 252 290 11,000 -450 Level Fort Worth Center
Mon 06:22:08 PM 32.9481 -97.1683 154° Southeast 252 290 10,100 -1,000 Descending Fort Worth Center
Mon 06:23:08 PM 32.8750 -97.1636 177° South 241 277 9,000 -1,100 Descending Fort Worth Center
Mon 06:24:08 PM 32.8081 -97.1464 168° South 246 283 7,900 -1,300 Descending Fort Worth Center
Mon 06:25:08 PM 32.7433 -97.1219 162° South 246 283 6,400 -1,400 Descending Fort Worth Center
Mon 06:26:08 PM 32.7158 -97.0506 115° Southeast 217 250 5,100 -1,200 Descending Fort Worth Center
Mon 06:27:08 PM 32.7575 -97.0133 37° Northeast 167 192 4,000 -1,368 Descending Fort Worth Center
Mon 06:28:24 PM 32.8167 -97.0000 11° North 175 201 2,000 -1,579 Descending Dallas / Fort Worth TRACON
Mon 06:30:00 PM 32.8833 -97.0333 348° North  Level FlightAware Approximate
Mon 06:37:00 PM 32.8968 -97.0380 348° North  Level Estimated

Login

Don't have an account? Register now (free) for customized features, flight alerts, and more!